Time;durP1;ratioP1;P1;durP2;ratioP2;P2;SDS_P1;SDS_P2;PMS_P1;PMS_P2;Temp;Humidity;BMP_temperature;BMP_pressure;BME280_temperature;BME280_humidity;BME280_pressure;Samples;Min_cycle;Max_cycle;Signal;HPM_P1;HPM_P2
2023/04/20 00:00:58;;;;;;;6.75;3.42;;;9.90;50.00;;;;;;2093315;28;20036;-71
2023/04/20 00:02:02;;;;;;;4.65;3.47;;;9.90;50.00;;;;;;2091475;28;20057;-71
2023/04/20 00:03:04;;;;;;;5.10;3.13;;;9.90;50.50;;;;;;2091823;28;20028;-71
2023/04/20 00:04:04;;;;;;;5.28;3.63;;;9.90;50.00;;;;;;2093308;28;20024;-71
2023/04/20 00:05:06;;;;;;;5.65;3.53;;;9.90;50.00;;;;;;2096836;28;20479;-71
2023/04/20 00:06:08;;;;;;;7.32;3.38;;;9.90;49.90;;;;;;2091463;28;20032;-71
2023/04/20 00:07:08;;;;;;;5.97;3.58;;;9.90;50.00;;;;;;2092903;28;20500;-71
2023/04/20 00:08:09;;;;;;;4.40;3.00;;;9.90;50.00;;;;;;2094184;28;20818;-71
2023/04/20 00:09:12;;;;;;;6.80;3.95;;;9.90;50.00;;;;;;2095101;28;20143;-71
2023/04/20 00:10:12;;;;;;;7.38;3.45;;;9.90;50.10;;;;;;2091859;28;20440;-71
2023/04/20 00:11:13;;;;;;;5.55;3.63;;;9.90;50.20;;;;;;2091704;28;20025;-71
2023/04/20 00:12:13;;;;;;;5.22;3.72;;;9.90;50.30;;;;;;2095525;28;20028;-71
2023/04/20 00:13:14;;;;;;;6.28;3.35;;;9.90;50.30;;;;;;2093334;28;20121;-71
2023/04/20 00:14:15;;;;;;;3.72;2.97;;;9.90;50.30;;;;;;2092314;28;20594;-71
2023/04/20 00:15:16;;;;;;;4.50;3.35;;;9.90;50.50;;;;;;2094291;28;20021;-72
2023/04/20 00:16:17;;;;;;;5.85;3.20;;;9.90;50.60;;;;;;2094124;28;20108;-72
2023/04/20 00:17:17;;;;;;;7.95;3.38;;;9.90;50.40;;;;;;2090432;28;20036;-72
2023/04/20 00:18:18;;;;;;;7.75;3.38;;;9.90;50.50;;;;;;2092602;28;20036;-72
2023/04/20 00:19:19;;;;;;;5.15;3.85;;;9.90;50.40;;;;;;2093240;28;20028;-71
2023/04/20 00:20:20;;;;;;;5.22;3.40;;;9.80;50.40;;;;;;2092784;28;20448;-71
2023/04/20 00:21:22;;;;;;;7.00;3.63;;;9.80;50.50;;;;;;2093916;28;20083;-71
2023/04/20 00:22:24;;;;;;;5.25;3.30;;;9.80;50.50;;;;;;2089740;28;20476;-71
2023/04/20 00:23:24;;;;;;;4.63;3.28;;;9.80;50.50;;;;;;2091517;28;20020;-71
2023/04/20 00:24:25;;;;;;;6.60;3.13;;;9.80;50.50;;;;;;2094170;28;20020;-71
2023/04/20 00:25:25;;;;;;;7.35;3.13;;;9.80;50.60;;;;;;2092915;28;20024;-71
2023/04/20 00:26:26;;;;;;;5.93;3.13;;;9.80;51.00;;;;;;2091824;28;20086;-71
2023/04/20 00:27:27;;;;;;;8.43;3.67;;;9.80;50.90;;;;;;2090734;28;20559;-71
2023/04/20 00:28:28;;;;;;;5.45;3.20;;;9.80;50.80;;;;;;2092530;28;20043;-71
2023/04/20 00:29:29;;;;;;;3.88;3.20;;;9.80;50.90;;;;;;2091771;28;20061;-71
2023/04/20 00:30:30;;;;;;;8.55;3.90;;;9.80;51.20;;;;;;2092534;28;20024;-71
2023/04/20 00:31:30;;;;;;;6.93;3.20;;;9.80;51.10;;;;;;2091050;28;20028;-71
2023/04/20 00:32:31;;;;;;;3.40;3.00;;;9.80;51.10;;;;;;2090850;28;20115;-71
2023/04/20 00:33:32;;;;;;;6.85;3.60;;;9.80;51.20;;;;;;2091244;28;20021;-71
2023/04/20 00:34:32;;;;;;;4.65;3.28;;;9.80;51.30;;;;;;2093627;28;20445;-71
2023/04/20 00:35:32;;;;;;;7.13;3.13;;;9.80;52.00;;;;;;2095101;28;20098;-71
2023/04/20 00:36:33;;;;;;;4.47;3.15;;;9.80;51.30;;;;;;2091469;28;20021;-71
2023/04/20 00:37:34;;;;;;;7.78;3.63;;;9.80;51.30;;;;;;2098062;28;20029;-71
2023/04/20 00:38:34;;;;;;;6.68;3.50;;;9.70;50.80;;;;;;2097800;28;20062;-71
2023/04/20 00:39:35;;;;;;;4.95;3.47;;;9.70;50.80;;;;;;2094993;28;20051;-71
2023/04/20 00:40:35;;;;;;;6.60;3.63;;;9.70;50.70;;;;;;2091658;28;20103;-71
2023/04/20 00:41:36;;;;;;;3.55;3.13;;;9.70;50.80;;;;;;2090575;28;20102;-71
2023/04/20 00:42:39;;;;;;;6.30;3.13;;;9.70;50.90;;;;;;2092489;28;20120;-71
2023/04/20 00:43:50;;;;;;;8.15;3.40;;;9.60;50.80;;;;;;2093402;28;20009;-71
2023/04/20 00:44:50;;;;;;;5.03;3.38;;;9.60;50.90;;;;;;2091452;28;20767;-71
2023/04/20 00:45:51;;;;;;;4.13;3.10;;;9.60;50.80;;;;;;2092213;28;20734;-71
2023/04/20 00:46:55;;;;;;;4.65;3.38;;;9.60;50.90;;;;;;2090636;28;20016;-71
2023/04/20 00:47:55;;;;;;;5.85;3.50;;;9.50;50.80;;;;;;2093306;28;20067;-71
2023/04/20 00:48:56;;;;;;;4.43;3.25;;;9.50;51.50;;;;;;2096166;28;20025;-71
2023/04/20 00:49:56;;;;;;;8.40;4.63;;;9.50;50.80;;;;;;2093257;28;20044;-71
2023/04/20 00:50:57;;;;;;;10.07;3.35;;;9.50;50.80;;;;;;2095014;28;20107;-71
2023/04/20 00:51:59;;;;;;;5.90;3.42;;;9.50;50.80;;;;;;2090138;28;20077;-71
2023/04/20 00:53:00;;;;;;;5.25;3.35;;;9.50;50.70;;;;;;2089875;28;20032;-71
2023/04/20 00:54:01;;;;;;;6.85;3.30;;;9.50;50.80;;;;;;2086977;28;20021;-71
2023/04/20 00:55:03;;;;;;;5.20;3.17;;;9.40;50.80;;;;;;2093358;28;20029;-71
2023/04/20 00:56:04;;;;;;;4.68;3.30;;;9.40;50.90;;;;;;2091904;28;20116;-71
2023/04/20 00:57:05;;;;;;;7.65;3.08;;;9.40;50.80;;;;;;2093886;28;20024;-71
2023/04/20 00:58:05;;;;;;;7.30;3.67;;;9.40;50.90;;;;;;2093523;28;20077;-71
2023/04/20 00:59:06;;;;;;;4.05;3.20;;;9.40;50.80;;;;;;2092610;28;20060;-71
2023/04/20 01:00:13;;;;;;;3.38;3.00;;;9.40;50.90;;;;;;2092225;28;20024;-71
2023/04/20 01:01:18;;;;;;;6.97;3.10;;;9.30;50.90;;;;;;2092171;28;20078;-71
2023/04/20 01:02:19;;;;;;;15.82;3.90;;;9.30;51.00;;;;;;2091419;28;20028;-71
2023/04/20 01:03:20;;;;;;;4.88;2.95;;;9.30;51.00;;;;;;2093364;28;20027;-71
2023/04/20 01:04:21;;;;;;;5.15;3.28;;;9.30;51.10;;;;;;2092236;28;20621;-71
2023/04/20 01:05:22;;;;;;;4.07;2.70;;;9.30;51.40;;;;;;2092423;28;20607;-71
2023/04/20 01:06:22;;;;;;;4.38;3.03;;;9.30;51.70;;;;;;2090709;28;20087;-71
2023/04/20 01:07:23;;;;;;;5.20;3.22;;;9.30;51.80;;;;;;2093448;28;20105;-71
2023/04/20 01:08:27;;;;;;;7.03;3.17;;;9.30;51.70;;;;;;2091443;28;20021;-71
2023/04/20 01:09:28;;;;;;;10.23;3.33;;;9.20;51.50;;;;;;2090983;28;20029;-71
2023/04/20 01:10:29;;;;;;;6.28;3.17;;;9.20;51.70;;;;;;2091216;28;20033;-71
2023/04/20 01:11:29;;;;;;;6.45;3.25;;;9.20;51.80;;;;;;2094196;28;20028;-71
2023/04/20 01:12:30;;;;;;;3.35;3.00;;;9.20;52.10;;;;;;2095031;28;20073;-71
2023/04/20 01:13:30;;;;;;;7.60;3.30;;;9.20;52.30;;;;;;2097084;28;20077;-71
2023/04/20 01:14:31;;;;;;;4.40;3.25;;;9.20;52.40;;;;;;2095682;28;20031;-71
2023/04/20 01:15:33;;;;;;;3.80;3.00;;;9.20;52.30;;;;;;2094103;28;20038;-71
2023/04/20 01:16:35;;;;;;;4.53;3.15;;;9.20;52.50;;;;;;2094259;28;20032;-71
2023/04/20 01:17:38;;;;;;;5.22;2.83;;;9.10;52.40;;;;;;2094950;28;20472;-71
2023/04/20 01:18:47;;;;;;;7.60;3.70;;;9.20;52.80;;;;;;2095027;28;20062;-71
2023/04/20 01:19:48;;;;;;;3.90;2.47;;;9.10;52.80;;;;;;2096178;28;20025;-71
2023/04/20 01:20:48;;;;;;;5.95;3.47;;;9.10;52.80;;;;;;2092876;28;20028;-71
2023/04/20 01:21:49;;;;;;;5.85;3.25;;;9.10;53.20;;;;;;2095682;28;20047;-71
2023/04/20 01:22:52;;;;;;;5.68;3.40;;;9.10;53.40;;;;;;2095699;28;20024;-71
2023/04/20 01:23:53;;;;;;;4.85;3.03;;;9.10;53.10;;;;;;2093472;28;20024;-71
2023/04/20 01:24:53;;;;;;;3.90;3.03;;;9.10;53.20;;;;;;2094675;28;20047;-71
2023/04/20 01:25:54;;;;;;;9.20;3.38;;;9.10;53.40;;;;;;2093261;28;20032;-71
2023/04/20 01:26:55;;;;;;;4.60;3.33;;;9.10;53.30;;;;;;2092393;28;20067;-71
2023/04/20 01:27:56;;;;;;;4.90;3.25;;;9.10;53.20;;;;;;2091939;28;20044;-71
2023/04/20 01:28:57;;;;;;;7.50;3.50;;;9.10;52.80;;;;;;2093445;28;20021;-71
2023/04/20 01:29:58;;;;;;;3.70;2.83;;;9.00;52.80;;;;;;2092597;28;20485;-71
2023/04/20 01:30:58;;;;;;;4.88;3.20;;;9.00;52.90;;;;;;2093530;28;20047;-71
2023/04/20 01:31:59;;;;;;;5.38;3.03;;;9.00;52.80;;;;;;2093131;28;20115;-71
2023/04/20 01:33:00;;;;;;;7.60;3.65;;;9.00;52.80;;;;;;2092830;28;20511;-71
2023/04/20 01:34:00;;;;;;;4.78;3.17;;;9.00;53.10;;;;;;2095260;28;20823;-71
2023/04/20 01:35:02;;;;;;;5.00;3.75;;;9.00;53.70;;;;;;2095064;28;20017;-71
2023/04/20 01:36:04;;;;;;;4.32;3.33;;;9.00;54.00;;;;;;2092534;28;20059;-71
2023/04/20 01:37:07;;;;;;;4.43;3.00;;;9.00;54.00;;;;;;2093671;28;20380;-71
2023/04/20 01:38:07;;;;;;;4.88;3.30;;;9.00;53.90;;;;;;2094280;28;20052;-71
2023/04/20 01:39:08;;;;;;;5.07;2.95;;;9.00;53.70;;;;;;2095231;28;20024;-71
2023/04/20 01:40:10;;;;;;;3.72;2.90;;;9.00;53.60;;;;;;2092115;28;20024;-71
2023/04/20 01:41:11;;;;;;;8.70;3.38;;;9.00;53.50;;;;;;2091609;28;20628;-71
2023/04/20 01:42:12;;;;;;;3.75;3.03;;;9.00;53.70;;;;;;2094381;28;20024;-71
2023/04/20 01:43:12;;;;;;;5.65;2.85;;;9.00;53.60;;;;;;2094929;28;20028;-71
2023/04/20 01:44:13;;;;;;;4.43;3.15;;;9.00;53.70;;;;;;2093122;28;20033;-71
2023/04/20 01:45:14;;;;;;;6.32;3.08;;;9.00;53.60;;;;;;2093531;28;20512;-71
2023/04/20 01:46:14;;;;;;;6.45;2.80;;;9.00;53.60;;;;;;2093750;28;20013;-71
2023/04/20 01:47:15;;;;;;;7.43;3.20;;;9.00;53.60;;;;;;2093475;28;20027;-71
2023/04/20 01:48:15;;;;;;;3.70;3.15;;;9.00;53.60;;;;;;2093642;28;20020;-71
2023/04/20 01:49:16;;;;;;;6.32;2.85;;;9.00;53.60;;;;;;2093921;28;20013;-71
2023/04/20 01:50:16;;;;;;;11.20;3.72;;;9.00;53.70;;;;;;2096406;28;21081;-71
2023/04/20 01:51:17;;;;;;;4.57;3.13;;;9.00;53.80;;;;;;2095114;28;20515;-71
2023/04/20 01:52:17;;;;;;;11.60;3.80;;;9.00;54.00;;;;;;2094172;28;20041;-71
2023/04/20 01:53:18;;;;;;;6.47;3.28;;;9.00;53.80;;;;;;2095980;28;20051;-71
2023/04/20 01:54:19;;;;;;;6.38;3.60;;;9.00;54.60;;;;;;2093773;28;20596;-71
2023/04/20 01:55:20;;;;;;;8.48;3.78;;;9.00;54.10;;;;;;2093088;28;20407;-71
2023/04/20 01:56:20;;;;;;;5.78;3.50;;;9.00;54.20;;;;;;2094587;28;20055;-71
2023/04/20 01:57:21;;;;;;;5.40;2.95;;;9.00;54.20;;;;;;2095368;28;20029;-71
2023/04/20 01:58:22;;;;;;;4.05;3.40;;;9.00;54.30;;;;;;2095324;28;21602;-71
2023/04/20 01:59:22;;;;;;;3.55;3.00;;;9.00;54.30;;;;;;2093872;28;20086;-71
2023/04/20 02:00:23;;;;;;;4.05;3.10;;;9.00;54.30;;;;;;2093352;28;20091;-71
2023/04/20 02:01:23;;;;;;;5.65;3.80;;;9.00;54.40;;;;;;2092819;28;20499;-71
2023/04/20 02:02:24;;;;;;;4.80;3.30;;;9.00;54.50;;;;;;2092868;28;20031;-71
2023/04/20 02:03:24;;;;;;;7.88;3.53;;;9.00;54.60;;;;;;2092999;28;20078;-71
2023/04/20 02:04:25;;;;;;;8.68;3.00;;;9.00;54.70;;;;;;2095145;28;20033;-71
2023/04/20 02:05:25;;;;;;;4.78;3.10;;;9.00;54.60;;;;;;2095179;28;20028;-71
2023/04/20 02:06:26;;;;;;;3.28;2.80;;;9.00;54.70;;;;;;2094340;28;20031;-71
2023/04/20 02:07:26;;;;;;;3.67;2.90;;;9.00;54.80;;;;;;2093549;28;20823;-71
2023/04/20 02:08:27;;;;;;;5.55;3.00;;;9.00;54.80;;;;;;2091481;28;20023;-71
2023/04/20 02:09:28;;;;;;;5.60;2.80;;;9.00;54.80;;;;;;2093829;28;20107;-71
2023/04/20 02:10:28;;;;;;;6.18;3.08;;;9.00;55.60;;;;;;2096661;28;20032;-71
2023/04/20 02:11:29;;;;;;;5.32;3.42;;;9.00;55.00;;;;;;2093749;28;20048;-71
2023/04/20 02:12:29;;;;;;;3.97;3.22;;;9.10;55.80;;;;;;2095068;28;20065;-71
2023/04/20 02:13:30;;;;;;;9.73;3.28;;;9.10;55.20;;;;;;2092881;28;20056;-71
2023/04/20 02:14:30;;;;;;;5.05;3.25;;;9.10;55.20;;;;;;2093402;28;20032;-71
2023/04/20 02:15:31;;;;;;;3.28;2.92;;;9.10;55.20;;;;;;2092330;28;20025;-71
2023/04/20 02:16:31;;;;;;;4.85;2.92;;;9.10;55.20;;;;;;2092785;28;20100;-71
2023/04/20 02:17:32;;;;;;;8.02;3.38;;;9.10;55.30;;;;;;2091436;28;20420;-71
2023/04/20 02:18:33;;;;;;;7.50;3.10;;;9.10;55.20;;;;;;2093766;28;20025;-71
2023/04/20 02:19:33;;;;;;;4.20;2.70;;;9.10;55.20;;;;;;2094925;28;20025;-71
2023/04/20 02:20:34;;;;;;;6.28;3.10;;;9.10;55.40;;;;;;2092833;28;20071;-71
2023/04/20 02:21:34;;;;;;;4.43;3.28;;;9.10;55.50;;;;;;2094299;28;20024;-72
2023/04/20 02:22:36;;;;;;;5.82;3.10;;;9.10;55.60;;;;;;2093953;28;20037;-72
2023/04/20 02:23:37;;;;;;;5.88;3.08;;;9.10;55.60;;;;;;2092883;28;20032;-72
2023/04/20 02:24:37;;;;;;;5.90;3.28;;;9.20;55.80;;;;;;2094605;28;20028;-72
2023/04/20 02:25:38;;;;;;;6.70;2.97;;;9.10;55.70;;;;;;2101161;28;20831;-71
2023/04/20 02:26:38;;;;;;;7.13;3.53;;;9.10;55.90;;;;;;2101235;28;20020;-71
2023/04/20 02:27:39;;;;;;;4.75;3.10;;;9.20;55.90;;;;;;2092459;28;20127;-71
2023/04/20 02:28:40;;;;;;;6.78;2.83;;;9.20;56.10;;;;;;2091358;28;20025;-71
2023/04/20 02:29:40;;;;;;;6.50;3.40;;;9.20;56.40;;;;;;2093189;28;20118;-71
2023/04/20 02:30:41;;;;;;;6.90;3.22;;;9.20;56.50;;;;;;2092720;28;20032;-71
2023/04/20 02:31:41;;;;;;;6.50;3.35;;;9.20;56.40;;;;;;2094011;28;20081;-71
2023/04/20 02:32:42;;;;;;;5.07;3.30;;;9.20;56.50;;;;;;2092506;28;20469;-71
2023/04/20 02:33:43;;;;;;;4.30;3.38;;;9.20;56.60;;;;;;2091758;28;20057;-71
2023/04/20 02:34:43;;;;;;;9.15;3.42;;;9.20;56.60;;;;;;2094511;28;20510;-71
2023/04/20 02:35:44;;;;;;;7.38;3.63;;;9.20;56.70;;;;;;2093877;28;20106;-71
2023/04/20 02:36:45;;;;;;;5.65;3.58;;;9.20;56.90;;;;;;2090714;28;20029;-71
2023/04/20 02:37:47;;;;;;;4.65;3.28;;;9.30;57.00;;;;;;2093253;28;20388;-71
2023/04/20 02:38:47;;;;;;;6.35;3.30;;;9.20;57.10;;;;;;2091966;28;20112;-71
2023/04/20 02:39:48;;;;;;;6.68;3.35;;;9.30;57.40;;;;;;2092482;28;20404;-71
2023/04/20 02:40:49;;;;;;;5.35;3.50;;;9.30;57.70;;;;;;2094228;28;20032;-71
2023/04/20 02:41:49;;;;;;;5.03;3.85;;;9.30;57.50;;;;;;2094956;28;20032;-71
2023/04/20 02:42:50;;;;;;;6.45;3.40;;;9.30;57.80;;;;;;2094275;28;20086;-71
2023/04/20 02:43:51;;;;;;;6.55;3.33;;;9.30;58.00;;;;;;2093103;28;20039;-71
2023/04/20 02:44:51;;;;;;;6.80;3.78;;;9.30;58.00;;;;;;2093245;28;20472;-71
2023/04/20 02:45:52;;;;;;;4.68;3.42;;;9.30;58.10;;;;;;2094690;28;20027;-71
2023/04/20 02:46:52;;;;;;;6.63;3.72;;;9.30;58.20;;;;;;2095798;28;20017;-71
2023/04/20 02:47:53;;;;;;;4.15;3.33;;;9.20;58.30;;;;;;2096885;28;20021;-71
2023/04/20 02:48:55;;;;;;;6.28;3.47;;;9.30;58.60;;;;;;2093814;28;20028;-71
2023/04/20 02:49:55;;;;;;;5.00;3.88;;;9.30;58.70;;;;;;2091745;28;20752;-71
2023/04/20 02:50:56;;;;;;;4.65;3.35;;;9.20;58.80;;;;;;2093465;28;20454;-71
2023/04/20 02:51:57;;;;;;;4.13;3.10;;;9.30;59.10;;;;;;2094642;28;20028;-71
2023/04/20 02:52:57;;;;;;;5.72;3.53;;;9.30;59.00;;;;;;2096436;28;20028;-71
2023/04/20 02:53:58;;;;;;;6.65;3.40;;;9.30;59.00;;;;;;2092098;28;20088;-71
2023/04/20 02:54:58;;;;;;;5.38;3.45;;;9.30;59.30;;;;;;2094423;28;20082;-71
2023/04/20 02:55:59;;;;;;;3.70;3.33;;;9.30;59.20;;;;;;2093863;28;20029;-71
2023/04/20 02:57:00;;;;;;;9.07;3.55;;;9.30;59.40;;;;;;2092176;28;20129;-71
2023/04/20 02:58:02;;;;;;;8.10;3.92;;;9.30;59.50;;;;;;2093875;28;20056;-71
2023/04/20 02:59:03;;;;;;;9.68;4.30;;;9.30;59.60;;;;;;2091493;28;20115;-71
2023/04/20 03:00:04;;;;;;;6.53;4.20;;;9.30;60.50;;;;;;2094305;28;20143;-71
2023/04/20 03:01:04;;;;;;;6.80;4.03;;;9.30;60.00;;;;;;2094075;28;20028;-71
2023/04/20 03:02:05;;;;;;;6.72;3.67;;;9.30;60.20;;;;;;2093228;28;20525;-71
2023/04/20 03:03:06;;;;;;;9.88;3.75;;;9.30;60.40;;;;;;2095679;28;20086;-72
2023/04/20 03:04:06;;;;;;;9.07;3.53;;;9.20;60.40;;;;;;2094681;28;20111;-71
2023/04/20 03:05:07;;;;;;;7.93;3.80;;;9.30;60.50;;;;;;2095037;28;20016;-71
2023/04/20 03:06:07;;;;;;;4.97;3.47;;;9.20;60.90;;;;;;2094451;28;20131;-71
2023/04/20 03:07:09;;;;;;;6.05;3.70;;;9.30;60.90;;;;;;2093909;28;20112;-71
2023/04/20 03:08:09;;;;;;;8.20;4.15;;;9.30;61.10;;;;;;2097520;28;20025;-71
2023/04/20 03:09:10;;;;;;;7.55;3.97;;;9.30;61.70;;;;;;2093433;28;20047;-71
2023/04/20 03:10:11;;;;;;;6.10;3.97;;;9.30;62.00;;;;;;2093067;28;20107;-71
2023/04/20 03:11:11;;;;;;;6.22;3.72;;;9.30;62.10;;;;;;2092608;28;20538;-71
2023/04/20 03:12:12;;;;;;;6.45;4.25;;;9.30;62.10;;;;;;2091967;28;20032;-71
2023/04/20 03:13:12;;;;;;;6.55;4.18;;;9.30;62.30;;;;;;2092933;28;20075;-71
2023/04/20 03:14:13;;;;;;;5.57;3.80;;;9.30;62.50;;;;;;2091592;28;20098;-71
2023/04/20 03:15:14;;;;;;;7.28;4.38;;;9.30;62.70;;;;;;2093129;28;20017;-71
2023/04/20 03:16:16;;;;;;;8.40;4.53;;;9.30;62.90;;;;;;2096165;28;20198;-71
2023/04/20 03:17:17;;;;;;;5.53;4.18;;;9.30;63.80;;;;;;2096181;28;20137;-71
2023/04/20 03:18:18;;;;;;;10.48;4.38;;;9.30;63.60;;;;;;2093626;28;20150;-72
2023/04/20 03:19:18;;;;;;;7.20;4.13;;;9.30;64.10;;;;;;2096214;28;20012;-71
2023/04/20 03:20:19;;;;;;;6.80;4.70;;;9.30;64.10;;;;;;2095075;28;20047;-71
2023/04/20 03:21:20;;;;;;;5.00;4.25;;;9.30;64.10;;;;;;2091914;28;20524;-71
2023/04/20 03:22:20;;;;;;;7.60;4.32;;;9.30;64.60;;;;;;2092346;28;20461;-71
2023/04/20 03:23:21;;;;;;;6.05;4.38;;;9.30;64.80;;;;;;2092377;28;20421;-71
2023/04/20 03:24:22;;;;;;;6.22;4.47;;;9.30;65.10;;;;;;2091918;28;20059;-71
2023/04/20 03:25:23;;;;;;;7.85;5.10;;;9.30;65.40;;;;;;2091636;28;20099;-71
2023/04/20 03:26:24;;;;;;;6.68;4.50;;;9.30;65.80;;;;;;2092366;28;20035;-71
2023/04/20 03:27:25;;;;;;;6.93;4.10;;;9.30;65.90;;;;;;2092545;28;20441;-71
2023/04/20 03:28:25;;;;;;;5.35;4.68;;;9.30;65.90;;;;;;2091977;28;20103;-71
2023/04/20 03:29:26;;;;;;;6.68;4.63;;;9.30;66.00;;;;;;2089996;28;20024;-71
2023/04/20 03:30:26;;;;;;;6.10;4.20;;;9.30;66.30;;;;;;2093082;28;20103;-72
2023/04/20 03:31:27;;;;;;;6.43;4.68;;;9.30;66.50;;;;;;2094316;28;20568;-71
2023/04/20 03:32:27;;;;;;;9.70;4.80;;;9.30;66.60;;;;;;2092620;28;20025;-71
2023/04/20 03:33:28;;;;;;;5.88;4.22;;;9.30;66.80;;;;;;2093257;28;20032;-71
2023/04/20 03:34:28;;;;;;;8.27;4.60;;;9.30;67.50;;;;;;2096019;28;20094;-71
2023/04/20 03:35:29;;;;;;;9.02;4.50;;;9.30;67.70;;;;;;2095895;28;20032;-71
2023/04/20 03:36:30;;;;;;;7.30;4.60;;;9.30;67.40;;;;;;2093532;28;20108;-71
2023/04/20 03:37:31;;;;;;;5.88;4.35;;;9.30;67.50;;;;;;2092763;28;20025;-71
2023/04/20 03:38:31;;;;;;;5.18;4.00;;;9.30;67.70;;;;;;2095826;28;20103;-71
2023/04/20 03:39:32;;;;;;;8.20;4.72;;;9.30;68.00;;;;;;2095391;28;20552;-71
2023/04/20 03:40:32;;;;;;;6.28;4.68;;;9.30;68.10;;;;;;2092206;28;20074;-71
2023/04/20 03:41:33;;;;;;;6.20;5.07;;;9.30;68.50;;;;;;2094871;28;20029;-71
2023/04/20 03:42:34;;;;;;;7.13;4.32;;;9.30;68.60;;;;;;2094315;28;20536;-71
2023/04/20 03:43:34;;;;;;;6.50;4.60;;;9.30;68.90;;;;;;2089893;28;20028;-71
2023/04/20 03:44:35;;;;;;;7.30;4.70;;;9.30;69.00;;;;;;2094564;28;20035;-71
2023/04/20 03:45:35;;;;;;;6.85;4.57;;;9.30;69.30;;;;;;2093979;28;20070;-71
2023/04/20 03:46:36;;;;;;;5.75;4.30;;;9.30;69.70;;;;;;2093444;28;20021;-71
2023/04/20 03:47:37;;;;;;;7.05;4.45;;;9.30;69.70;;;;;;2093269;28;20025;-71
2023/04/20 03:48:37;;;;;;;6.30;4.25;;;9.30;69.90;;;;;;2091311;28;20433;-72
2023/04/20 03:49:38;;;;;;;5.13;4.55;;;9.20;70.20;;;;;;2092955;28;20021;-71
2023/04/20 03:50:38;;;;;;;7.30;4.95;;;9.20;70.30;;;;;;2091837;28;20029;-71
2023/04/20 03:51:39;;;;;;;9.75;5.45;;;9.30;70.50;;;;;;2092714;28;20563;-71
2023/04/20 03:52:39;;;;;;;6.60;4.78;;;9.20;70.70;;;;;;2092017;28;20033;-71
2023/04/20 03:53:40;;;;;;;5.80;4.63;;;9.20;70.80;;;;;;2092017;28;20047;-71
2023/04/20 03:54:40;;;;;;;7.80;4.40;;;9.20;71.30;;;;;;2092822;28;20051;-71
2023/04/20 03:55:41;;;;;;;4.82;4.00;;;9.20;71.40;;;;;;2093026;28;20116;-71
2023/04/20 03:56:43;;;;;;;5.43;4.45;;;9.20;71.10;;;;;;2093186;28;20452;-71
2023/04/20 03:57:44;;;;;;;7.30;4.25;;;9.20;71.40;;;;;;2091371;28;20104;-71
2023/04/20 03:58:45;;;;;;;5.57;4.50;;;9.20;71.50;;;;;;2094086;28;20484;-71
2023/04/20 03:59:45;;;;;;;9.50;4.72;;;9.20;71.60;;;;;;2093156;28;20031;-71
2023/04/20 04:00:46;;;;;;;9.18;4.80;;;9.20;72.20;;;;;;2092261;28;20032;-71
2023/04/20 04:01:46;;;;;;;7.53;4.20;;;9.20;72.20;;;;;;2092306;28;20029;-71
2023/04/20 04:02:47;;;;;;;6.18;4.10;;;9.20;72.30;;;;;;2091764;28;20103;-71
2023/04/20 04:03:47;;;;;;;6.45;4.53;;;9.20;72.30;;;;;;2094140;28;20021;-71
2023/04/20 04:04:48;;;;;;;6.18;4.20;;;9.20;72.60;;;;;;2095240;28;20024;-71
2023/04/20 04:05:48;;;;;;;4.75;3.88;;;9.20;72.90;;;;;;2092114;28;20028;-71
2023/04/20 04:06:49;;;;;;;5.88;3.90;;;9.20;73.00;;;;;;2093773;28;20024;-71
2023/04/20 04:07:49;;;;;;;6.03;4.40;;;9.20;73.10;;;;;;2092475;28;20042;-71
2023/04/20 04:08:50;;;;;;;5.90;3.85;;;9.20;73.00;;;;;;2092581;28;20108;-71
2023/04/20 04:09:50;;;;;;;6.13;4.50;;;9.20;73.40;;;;;;2093553;28;20396;-71
2023/04/20 04:10:51;;;;;;;6.85;4.28;;;9.20;73.30;;;;;;2093078;28;20436;-71
2023/04/20 04:11:51;;;;;;;6.13;4.03;;;9.20;73.60;;;;;;2093375;28;20177;-71
2023/04/20 04:12:52;;;;;;;10.27;4.97;;;9.20;73.70;;;;;;2092267;28;20029;-71
2023/04/20 04:13:52;;;;;;;6.65;4.35;;;9.20;73.80;;;;;;2091815;28;20039;-71
2023/04/20 04:14:53;;;;;;;6.75;3.90;;;9.20;74.00;;;;;;2093186;28;20040;-71
2023/04/20 04:15:54;;;;;;;8.68;4.57;;;9.20;74.20;;;;;;2092826;28;20101;-72
2023/04/20 04:16:54;;;;;;;5.95;4.45;;;9.20;74.30;;;;;;2093183;28;20029;-71
2023/04/20 04:17:55;;;;;;;5.53;4.20;;;9.20;74.70;;;;;;2096477;28;20024;-71
2023/04/20 04:18:56;;;;;;;7.18;4.30;;;9.20;74.80;;;;;;2094422;28;20094;-71
2023/04/20 04:19:56;;;;;;;6.32;4.25;;;9.20;74.90;;;;;;2091839;28;20036;-71
2023/04/20 04:20:57;;;;;;;7.35;4.65;;;9.20;75.00;;;;;;2093134;28;20085;-71
2023/04/20 04:21:58;;;;;;;5.82;4.10;;;9.20;75.20;;;;;;2093230;28;20063;-71
2023/04/20 04:22:59;;;;;;;4.28;3.75;;;9.20;75.40;;;;;;2092824;28;20032;-71
2023/04/20 04:23:59;;;;;;;10.25;4.38;;;9.10;76.10;;;;;;2091448;28;20052;-72
2023/04/20 04:25:00;;;;;;;4.68;4.05;;;9.10;75.90;;;;;;2090929;28;20574;-71
2023/04/20 04:26:01;;;;;;;4.82;3.65;;;9.10;75.80;;;;;;2093191;28;20090;-71
2023/04/20 04:27:04;;;;;;;6.30;3.67;;;9.10;76.00;;;;;;2092028;28;20387;-71
2023/04/20 04:28:05;;;;;;;5.28;4.28;;;9.10;76.40;;;;;;2092111;28;20078;-71
2023/04/20 04:29:06;;;;;;;5.20;3.75;;;9.10;76.60;;;;;;2095026;28;20444;-71
2023/04/20 04:30:07;;;;;;;4.50;3.38;;;9.10;76.70;;;;;;2093123;28;20021;-71
2023/04/20 04:31:08;;;;;;;5.75;3.60;;;9.10;76.80;;;;;;2092935;28;20017;-71
2023/04/20 04:32:10;;;;;;;7.75;3.80;;;9.10;77.00;;;;;;2092129;28;20024;-71
2023/04/20 04:33:13;;;;;;;8.65;4.05;;;9.10;77.10;;;;;;2092066;28;20025;-71
2023/04/20 04:34:13;;;;;;;5.03;3.97;;;9.10;77.30;;;;;;2094037;28;20093;-71
2023/04/20 04:35:14;;;;;;;6.60;3.75;;;9.10;77.60;;;;;;2093022;28;20024;-72
2023/04/20 04:36:15;;;;;;;9.50;4.38;;;9.10;77.70;;;;;;2093755;28;20082;-71
2023/04/20 04:37:15;;;;;;;5.25;4.10;;;9.10;78.50;;;;;;2092912;28;20523;-71
2023/04/20 04:38:16;;;;;;;5.93;3.70;;;9.10;78.00;;;;;;2091855;28;20063;-71
2023/04/20 04:39:16;;;;;;;7.25;4.50;;;9.10;78.30;;;;;;2091326;28;20024;-71
2023/04/20 04:40:17;;;;;;;5.63;4.40;;;9.10;78.50;;;;;;2092813;28;20518;-71
2023/04/20 04:41:18;;;;;;;6.13;4.00;;;9.10;78.60;;;;;;2091670;28;20523;-71
2023/04/20 04:42:18;;;;;;;5.90;4.05;;;9.10;78.70;;;;;;2093325;28;20078;-71
2023/04/20 04:43:19;;;;;;;5.75;3.97;;;9.10;78.90;;;;;;2093168;28;20028;-71
2023/04/20 04:44:21;;;;;;;6.40;3.85;;;9.10;79.20;;;;;;2092939;28;20016;-71
2023/04/20 04:45:24;;;;;;;5.95;3.90;;;9.10;79.40;;;;;;2094859;28;20155;-71
2023/04/20 04:46:24;;;;;;;7.18;4.13;;;9.10;79.80;;;;;;2092258;28;20029;-71
2023/04/20 04:47:25;;;;;;;5.88;4.28;;;9.10;80.00;;;;;;2092472;28;20104;-71
2023/04/20 04:48:26;;;;;;;8.63;4.43;;;9.10;80.00;;;;;;2092613;28;21033;-71
2023/04/20 04:49:28;;;;;;;6.00;4.25;;;9.10;80.00;;;;;;2093573;28;21655;-71
2023/04/20 04:50:28;;;;;;;6.95;4.32;;;9.10;80.10;;;;;;2093535;28;20057;-71
2023/04/20 04:51:30;;;;;;;7.55;4.35;;;9.10;80.30;;;;;;2093774;28;20053;-71
2023/04/20 04:52:32;;;;;;;4.88;3.95;;;9.10;80.50;;;;;;2094057;28;20020;-71
2023/04/20 04:53:33;;;;;;;7.65;4.10;;;9.10;80.80;;;;;;2093046;28;20024;-71
2023/04/20 04:54:34;;;;;;;7.57;4.28;;;9.10;80.80;;;;;;2092193;28;20032;-71
2023/04/20 04:55:34;;;;;;;8.07;4.00;;;9.10;81.00;;;;;;2091152;28;20012;-71
2023/04/20 04:56:35;;;;;;;5.95;4.47;;;9.10;81.10;;;;;;2092005;28;20041;-71
2023/04/20 04:57:37;;;;;;;6.75;4.25;;;9.10;81.40;;;;;;2092836;28;20074;-71
2023/04/20 04:58:38;;;;;;;5.50;4.28;;;9.10;81.70;;;;;;2094628;28;20025;-71
2023/04/20 04:59:38;;;;;;;6.93;4.82;;;9.10;81.90;;;;;;2091409;28;20037;-71
2023/04/20 05:00:39;;;;;;;6.55;4.40;;;9.10;81.80;;;;;;2091742;28;20377;-71
2023/04/20 05:01:39;;;;;;;8.13;4.88;;;9.10;81.90;;;;;;2090580;28;20021;-71
2023/04/20 05:02:40;;;;;;;5.63;4.43;;;9.10;82.60;;;;;;2091914;28;20051;-71
2023/04/20 05:03:40;;;;;;;7.30;4.45;;;9.10;81.80;;;;;;2092613;28;20014;-71
2023/04/20 05:04:41;;;;;;;6.90;3.75;;;9.10;82.20;;;;;;2094164;28;20078;-71
2023/04/20 05:05:42;;;;;;;7.15;4.47;;;9.10;82.30;;;;;;2094590;28;20094;-71
2023/04/20 05:06:42;;;;;;;6.78;4.68;;;9.10;82.20;;;;;;2092667;28;20464;-71
2023/04/20 05:07:43;;;;;;;7.88;5.03;;;9.10;82.10;;;;;;2092757;28;20025;-71
2023/04/20 05:08:44;;;;;;;7.65;5.10;;;9.10;82.40;;;;;;2091592;28;20059;-71
2023/04/20 05:09:45;;;;;;;7.78;4.85;;;9.10;82.40;;;;;;2092422;28;20097;-71
2023/04/20 05:10:45;;;;;;;9.02;4.43;;;9.10;82.80;;;;;;2090423;28;20097;-71
2023/04/20 05:11:46;;;;;;;5.57;4.28;;;9.10;82.80;;;;;;2094018;28;20029;-72
2023/04/20 05:12:47;;;;;;;5.25;4.40;;;9.10;82.90;;;;;;2090417;28;20064;-71
2023/04/20 05:13:48;;;;;;;5.32;4.40;;;9.10;83.10;;;;;;2095614;28;20082;-71
2023/04/20 05:14:49;;;;;;;7.35;4.40;;;9.10;83.10;;;;;;2092399;28;20036;-71
2023/04/20 05:15:49;;;;;;;7.35;4.90;;;9.10;83.20;;;;;;2091574;28;20052;-71
2023/04/20 05:16:50;;;;;;;5.20;4.35;;;9.10;83.30;;;;;;2091937;28;20591;-71
2023/04/20 05:17:51;;;;;;;8.10;4.18;;;9.10;83.70;;;;;;2092275;28;20043;-71
2023/04/20 05:18:51;;;;;;;8.63;4.72;;;9.10;83.80;;;;;;2093010;28;20047;-71
2023/04/20 05:19:52;;;;;;;9.07;5.15;;;9.10;83.90;;;;;;2090844;28;20412;-71
2023/04/20 05:20:52;;;;;;;6.22;4.57;;;9.10;84.10;;;;;;2096333;28;20024;-71
2023/04/20 05:21:53;;;;;;;5.57;4.32;;;9.10;84.10;;;;;;2093823;28;20100;-71